Home   Weather   Milan Chok   Past weeks
Flag for Nepal

Past Weather in Milan Chok, Nepal — Yesterday and Last 2 Weeks

Currently: 86 °F. Partly sunny. (Weather station: Kathmandu Airport, Nepal). See more current weather

Past Weather in Milan Chok — Graph

°F

Milan Chok Temperature Yesterday

Maximum temperature yesterday: 86 °F (at 12:15 pm)
Minimum temperature yesterday: 64 °F (at 3:15 am)
Average temperature yesterday: 76 °F

High & Low Weather Summary for the Past Weeks

 TemperatureHumidityPressure
High86 °F (Apr 20, 12:15 pm)94% (Apr 12, 4:45 am)30.21 "Hg (Apr 12, 4:45 am)
Low54 °F (Apr 12, 4:45 am)8% (Apr 21, 11:45 am)29.77 "Hg (Apr 19, 1:45 pm)
Average71 °F49%30.01 "Hg
* Reported Apr 6 12:45 pm — Apr 21 12:45 pm, Milan Chok. Weather by CustomWeather, © 2024

Note: Actual official high and low records may vary slightly from our data, if they occured in-between our weather recording intervals... More about our weather records

Milan Chok Weather History for the Previous 24 Hours

Scroll right to see more
 ConditionsComfort  
Time TempWeatherWind HumidityBarometerVisibility
12:45 pm
Sun, Apr 21
86 °FPartly sunny.13 mph10%29.86 "HgN/A
12:15 pm84 °FScattered clouds.12 mph8%29.86 "HgN/A
11:45 am84 °FPartly sunny.7 mph8%29.89 "HgN/A
11:15 am82 °FPartly sunny.5 mph17%29.89 "Hg5 mi
10:45 am81 °FPartly sunny.5 mph18%29.89 "Hg4 mi
10:15 am79 °FPartly sunny.5 mph26%29.92 "Hg4 mi
9:45 am77 °FPartly sunny.5 mph32%29.92 "Hg4 mi
9:15 am75 °FPassing clouds.2 mph34%29.92 "Hg4 mi
8:15 am72 °FPassing clouds.No wind38%29.92 "Hg4 mi
7:45 am68 °FPassing clouds.No wind46%29.89 "Hg4 mi
7:15 am66 °FPassing clouds.2 mph49%29.89 "Hg4 mi
6:45 am63 °FPassing clouds.5 mph56%29.89 "Hg4 mi
6:15 am63 °FPassing clouds.3 mph52%29.89 "Hg4 mi
5:45 am61 °FPassing clouds.5 mph59%29.86 "Hg4 mi
4:45 am63 °FPassing clouds.2 mph52%29.86 "Hg4 mi
4:15 am63 °FPassing clouds.5 mph52%29.86 "Hg4 mi
3:45 am63 °FPassing clouds.3 mph52%29.86 "Hg4 mi
3:15 am63 °FPassing clouds.5 mph56%29.86 "Hg4 mi
1:45 am66 °FPassing clouds.3 mph49%29.86 "Hg4 mi
1:15 am66 °FPassing clouds.3 mph52%29.86 "Hg4 mi
12:45 am68 °FPassing clouds.3 mph46%29.89 "Hg4 mi
12:15 am68 °FPassing clouds.5 mph49%29.89 "Hg4 mi
11:45 pm
Sat, Apr 20
81 °FPassing clouds.2 mph28%29.89 "Hg4 mi
11:15 pm73 °FPassing clouds.3 mph31%29.89 "Hg4 mi
10:45 pm72 °FPassing clouds.3 mph38%29.89 "Hg4 mi
10:15 pm73 °FPassing clouds.5 mph44%29.89 "Hg4 mi
9:45 pm75 °FPassing clouds.3 mph31%29.89 "Hg4 mi
9:15 pm79 °FPassing clouds.3 mph30%29.86 "Hg4 mi
8:45 pm79 °FPassing clouds.6 mph24%29.86 "Hg4 mi
8:15 pm81 °FPassing clouds.8 mph21%29.86 "Hg4 mi
7:45 pm81 °FPassing clouds.6 mph24%29.83 "Hg4 mi
6:45 pm82 °FPassing clouds.7 mph25%29.80 "Hg4 mi
6:15 pm82 °FPassing clouds.5 mph28%29.80 "Hg4 mi
5:45 pm84 °FPassing clouds.9 mph23%29.77 "Hg4 mi
5:15 pm84 °FPassing clouds.10 mph27%29.77 "Hg4 mi
4:45 pm86 °FPassing clouds.10 mph25%29.77 "Hg5 mi
4:15 pm86 °FPassing clouds.18 mph24%29.77 "Hg5 mi
3:45 pm86 °FPassing clouds.14 mph25%29.77 "Hg5 mi
3:15 pm86 °FPassing clouds.15 mph25%29.80 "Hg5 mi
2:45 pm86 °FPassing clouds.13 mph25%29.80 "Hg5 mi
2:15 pm86 °FPassing clouds.13 mph24%29.80 "Hg5 mi
Weather by CustomWeather, © 2024

See weather overview